Time;durP1;ratioP1;P1;durP2;ratioP2;P2;SDS_P1;SDS_P2;PMS_P1;PMS_P2;Temp;Humidity;BMP_temperature;BMP_pressure;BME280_temperature;BME280_humidity;BME280_pressure;Samples;Min_cycle;Max_cycle;Signal;HPM_P1;HPM_P2
2023/06/17 00:00:47;;;;;;;11.50;5.17;;;;;;;19.49;100.00;96185.88;6153228;23;20009;-82
2023/06/17 00:03:15;;;;;;;8.70;4.47;;;;;;;19.76;100.00;96181.19;6128419;23;20005;-82
2023/06/17 00:05:41;;;;;;;8.57;4.87;;;;;;;19.62;100.00;96179.63;6153703;23;20009;-82
2023/06/17 00:08:07;;;;;;;7.83;4.80;;;;;;;19.50;100.00;96180.31;6129199;23;20091;-83
2023/06/17 00:10:36;;;;;;;10.60;5.20;;;;;;;19.41;100.00;96180.78;6180454;23;19997;-82
2023/06/17 00:13:02;;;;;;;7.33;4.43;;;;;;;19.34;100.00;96180.03;6129802;23;20087;-83
2023/06/17 00:15:32;;;;;;;9.13;5.50;;;;;;;19.42;100.00;96180.59;6156049;23;20396;-83
2023/06/17 00:18:00;;;;;;;8.47;5.23;;;;;;;19.39;100.00;96174.88;6182104;23;20001;-83
2023/06/17 00:20:25;;;;;;;11.63;4.90;;;;;;;19.24;100.00;96183.16;6130967;23;20500;-82
2023/06/17 00:22:52;;;;;;;9.30;5.03;;;;;;;19.43;100.00;96174.22;6158090;23;20092;-82
2023/06/17 00:25:18;;;;;;;9.27;5.77;;;;;;;19.24;100.00;96172.50;6155594;23;20012;-82
2023/06/17 00:27:44;;;;;;;7.80;5.00;;;;;;;19.14;100.00;96172.16;6155046;23;20472;-82
2023/06/17 00:30:10;;;;;;;11.33;5.10;;;;;;;19.33;100.00;96165.88;6130790;23;20001;-82
2023/06/17 00:32:42;;;;;;;7.90;4.80;;;;;;;19.33;100.00;96165.06;6153829;23;20009;-82
2023/06/17 00:35:07;;;;;;;8.30;5.07;;;;;;;19.27;100.00;96172.88;6129402;23;20009;-83
2023/06/17 00:37:34;;;;;;;8.90;5.57;;;;;;;19.34;100.00;96170.16;6154617;23;20004;-82
2023/06/17 00:40:00;;;;;;;8.67;4.63;;;;;;;19.38;100.00;96168.69;6154731;23;20039;-83
2023/06/17 00:42:40;;;;;;;10.63;5.30;;;;;;;19.19;100.00;96167.81;6130200;23;20009;-82
2023/06/17 00:45:06;;;;;;;11.83;5.37;;;;;;;18.96;100.00;96168.38;6131221;23;20832;-82
2023/06/17 00:47:32;;;;;;;11.00;5.93;;;;;;;18.72;100.00;96171.78;6131400;23;20085;-83
2023/06/17 00:49:58;;;;;;;7.60;4.53;;;;;;;18.74;100.00;96164.38;6154889;23;20334;-82
2023/06/17 00:52:24;;;;;;;16.60;5.17;;;;;;;18.61;100.00;96173.19;6154987;23;20009;-82
2023/06/17 00:54:50;;;;;;;9.77;6.13;;;;;;;18.74;100.00;96164.38;6181439;23;20001;-82
2023/06/17 00:57:16;;;;;;;11.43;7.07;;;;;;;18.82;100.00;96164.94;6156109;23;20005;-83
2023/06/17 00:59:43;;;;;;;14.03;6.53;;;;;;;18.88;100.00;96171.28;6128936;23;20012;-83
2023/06/17 01:02:11;;;;;;;10.20;6.67;;;;;;;18.77;100.00;96170.09;6153840;23;20012;-82
2023/06/17 01:04:42;;;;;;;8.63;5.47;;;;;;;18.38;100.00;96171.06;6154066;23;20025;-82
2023/06/17 01:07:42;;;;;;;7.73;5.33;;;;;;;18.37;100.00;96166.72;6155188;23;20009;-83
2023/06/17 01:10:10;;;;;;;8.90;5.27;;;;;;;18.49;100.00;96166.91;6130211;23;20009;-83
2023/06/17 01:12:37;;;;;;;8.50;5.10;;;;;;;18.52;100.00;96166.50;6164389;23;20623;-82
2023/06/17 01:15:04;;;;;;;7.50;4.60;;;;;;;18.38;100.00;96165.72;6130740;23;20108;-83
2023/06/17 01:17:30;;;;;;;10.20;5.90;;;;;;;18.17;100.00;96171.28;6155032;23;20484;-82
2023/06/17 01:19:57;;;;;;;10.50;5.53;;;;;;;18.31;100.00;96162.28;6130288;23;20043;-82
2023/06/17 01:22:30;;;;;;;7.57;4.87;;;;;;;18.20;100.00;96162.91;6130205;23;20037;-82
2023/06/17 01:24:56;;;;;;;7.87;5.10;;;;;;;17.97;100.00;96160.69;6130333;23;20013;-83
2023/06/17 01:27:23;;;;;;;8.77;5.53;;;;;;;17.85;100.00;96163.16;6154494;23;20140;-81
2023/06/17 01:29:48;;;;;;;8.33;5.13;;;;;;;18.01;100.00;96162.75;6130680;23;20673;-83
2023/06/17 01:32:14;;;;;;;9.87;5.47;;;;;;;17.49;100.00;96159.06;6181350;23;20004;-83
2023/06/17 01:34:49;;;;;;;8.93;5.03;;;;;;;17.57;100.00;96156.22;6130479;23;20028;-83
2023/06/17 01:37:40;;;;;;;10.70;5.47;;;;;;;17.50;100.00;96152.69;6155040;23;20009;-82
2023/06/17 01:40:10;;;;;;;13.57;5.47;;;;;;;17.68;100.00;96152.09;6130183;23;20013;-82
2023/06/17 01:42:43;;;;;;;10.20;5.33;;;;;;;17.86;100.00;96159.47;6154582;23;20005;-81
2023/06/17 01:45:10;;;;;;;9.97;5.27;;;;;;;17.67;100.00;96161.09;6130371;23;20012;-82
2023/06/17 01:47:36;;;;;;;8.20;5.17;;;;;;;18.01;100.00;96170.72;6130560;23;20009;-82
2023/06/17 01:50:04;;;;;;;7.87;4.93;;;;;;;17.73;100.00;96162.94;6130245;23;20001;-82
2023/06/17 01:52:31;;;;;;;8.93;5.17;;;;;;;17.64;100.00;96162.34;6153564;23;20005;-83
2023/06/17 01:54:57;;;;;;;9.03;5.17;;;;;;;17.87;100.00;96166.41;6129983;23;20019;-82
2023/06/17 01:57:30;;;;;;;8.13;5.13;;;;;;;18.07;100.00;96172.53;6130465;23;20009;-83
2023/06/17 01:59:56;;;;;;;7.60;4.85;;;;;;;18.34;100.00;96168.00;6155202;23;20009;-82
2023/06/17 02:02:23;;;;;;;8.80;5.30;;;;;;;17.79;100.00;96169.31;6153306;23;20012;-82
2023/06/17 02:04:50;;;;;;;10.53;5.67;;;;;;;17.49;100.00;96167.03;6129278;23;20093;-82
2023/06/17 02:07:18;;;;;;;7.60;5.30;;;;;;;17.54;100.00;96167.25;6130841;23;20016;-83
2023/06/17 02:09:45;;;;;;;7.97;5.20;;;;;;;17.61;100.00;96168.06;6154800;23;20004;-83
2023/06/17 02:12:12;;;;;;;10.17;5.90;;;;;;;17.63;100.00;96166.00;6130127;23;20012;-82
2023/06/17 02:14:40;;;;;;;9.77;5.60;;;;;;;17.38;100.00;96162.31;6155436;23;20001;-82
2023/06/17 02:17:08;;;;;;;8.80;5.20;;;;;;;17.41;100.00;96159.28;6130584;23;20087;-83
2023/06/17 02:19:35;;;;;;;9.57;5.53;;;;;;;17.34;100.00;96161.91;6131352;23;20059;-82
2023/06/17 02:22:02;;;;;;;9.57;6.27;;;;;;;17.50;100.00;96154.56;6155694;23;20342;-83
2023/06/17 02:24:27;;;;;;;9.10;6.37;;;;;;;17.54;100.00;96161.94;6130982;23;20008;-82
2023/06/17 02:26:53;;;;;;;11.00;6.80;;;;;;;17.52;100.00;96155.19;6156676;23;20009;-82
2023/06/17 02:29:19;;;;;;;9.30;6.30;;;;;;;17.42;100.00;96159.06;6154444;23;20527;-83
2023/06/17 02:31:45;;;;;;;9.00;6.07;;;;;;;17.42;100.00;96151.06;6154063;23;20009;-82
2023/06/17 02:34:11;;;;;;;8.27;6.00;;;;;;;17.64;100.00;96162.34;6129652;23;20445;-83
2023/06/17 02:36:39;;;;;;;8.07;6.47;;;;;;;17.71;100.00;96150.88;6129496;23;20012;-82
2023/06/17 02:39:06;;;;;;;10.23;6.60;;;;;;;17.57;100.00;96150.88;6154282;23;20059;-82
2023/06/17 02:41:32;;;;;;;9.47;6.47;;;;;;;17.27;100.00;96145.16;6153990;23;20630;-82
2023/06/17 02:43:58;;;;;;;9.80;6.90;;;;;;;17.09;100.00;96151.03;6129856;23;20009;-83
2023/06/17 02:46:27;;;;;;;10.73;6.93;;;;;;;17.23;100.00;96149.22;6124215;23;20009;-82
2023/06/17 02:48:52;;;;;;;9.17;6.57;;;;;;;17.05;100.00;96160.44;6153960;23;20005;-82
2023/06/17 02:51:18;;;;;;;8.67;6.87;;;;;;;17.39;100.00;96153.31;6152856;23;20016;-82
2023/06/17 02:53:46;;;;;;;11.50;6.90;;;;;;;17.23;100.00;96153.72;6154565;23;20425;-83
2023/06/17 02:56:15;;;;;;;13.27;6.63;;;;;;;17.17;100.00;96158.84;6154302;23;20151;-82
2023/06/17 02:58:43;;;;;;;9.97;6.80;;;;;;;17.20;100.00;96150.47;6154308;23;20029;-82
2023/06/17 03:01:17;;;;;;;9.93;7.17;;;;;;;17.28;100.00;96154.75;6128662;23;20013;-83
2023/06/17 03:03:44;;;;;;;10.17;7.30;;;;;;;17.00;100.00;96154.94;6153089;23;20350;-82
2023/06/17 03:06:12;;;;;;;9.83;7.40;;;;;;;16.82;100.00;96157.31;6129569;23;20015;-82
2023/06/17 03:08:41;;;;;;;9.67;7.23;;;;;;;16.82;100.00;96158.13;6130223;23;20342;-82
2023/06/17 03:11:07;;;;;;;10.20;8.13;;;;;;;16.68;100.00;96151.94;6129383;23;20076;-82
2023/06/17 03:13:34;;;;;;;8.63;6.67;;;;;;;16.54;100.00;96158.22;6129938;23;20009;-82
2023/06/17 03:16:01;;;;;;;10.10;6.57;;;;;;;16.59;100.00;96153.13;6154126;23;20604;-82
2023/06/17 03:18:30;;;;;;;9.03;6.37;;;;;;;16.52;100.00;96151.47;6130435;23;20008;-83
2023/06/17 03:20:56;;;;;;;10.07;6.97;;;;;;;16.34;100.00;96154.66;6129189;23;20024;-83
2023/06/17 03:23:24;;;;;;;10.83;7.07;;;;;;;16.16;100.00;96157.81;6154274;23;20005;-83
2023/06/17 03:25:51;;;;;;;10.17;6.37;;;;;;;16.48;100.00;96154.50;6129794;23;20005;-83
2023/06/17 03:28:18;;;;;;;9.13;6.17;;;;;;;16.46;100.00;96155.72;6154172;23;20460;-82
2023/06/17 03:30:45;;;;;;;10.03;6.30;;;;;;;16.55;100.00;96153.72;6129958;23;20755;-83
2023/06/17 03:33:13;;;;;;;8.60;6.20;;;;;;;16.58;100.00;96150.69;6134467;23;20083;-83
2023/06/17 03:35:39;;;;;;;11.43;6.17;;;;;;;16.48;100.00;96149.19;6154143;23;20012;-82
2023/06/17 03:38:05;;;;;;;10.60;5.90;;;;;;;16.56;100.00;96155.34;6130092;23;20095;-83
2023/06/17 03:40:31;;;;;;;9.10;5.53;;;;;;;16.64;100.00;96153.34;6129301;23;20430;-82
2023/06/17 03:42:59;;;;;;;9.17;5.80;;;;;;;16.85;100.00;96155.06;6154188;23;20001;-82
2023/06/17 03:45:25;;;;;;;9.60;5.93;;;;;;;16.95;100.00;96152.03;6130000;23;20005;-83
2023/06/17 03:47:54;;;;;;;9.53;5.70;;;;;;;16.89;100.00;96148.34;6154324;23;20054;-82
2023/06/17 03:50:20;;;;;;;11.67;5.90;;;;;;;16.92;100.00;96152.44;6154571;23;20005;-83
2023/06/17 03:52:45;;;;;;;8.90;5.13;;;;;;;16.89;100.00;96155.50;6130148;23;20036;-82
2023/06/17 03:55:12;;;;;;;8.07;5.10;;;;;;;16.72;100.00;96150.50;6132228;23;20040;-82
2023/06/17 03:57:42;;;;;;;9.60;5.70;;;;;;;16.63;100.00;96151.72;6132025;23;20544;-83
2023/06/17 04:00:08;;;;;;;7.17;5.23;;;;;;;16.70;100.00;96149.91;6131896;23;20013;-83
2023/06/17 04:02:41;;;;;;;8.53;5.33;;;;;;;16.93;100.00;96151.41;6155989;23;20055;-82
2023/06/17 04:05:06;;;;;;;10.40;6.30;;;;;;;17.15;100.00;96152.06;6129751;23;20001;-82
2023/06/17 04:07:48;;;;;;;7.07;5.37;;;;;;;17.28;100.00;96152.09;6155745;23;20060;-83
2023/06/17 04:10:14;;;;;;;8.90;5.63;;;;;;;17.23;100.00;96149.22;6156415;23;20001;-82
2023/06/17 04:12:41;;;;;;;11.93;5.27;;;;;;;17.59;100.00;96164.78;6130860;23;20063;-82
2023/06/17 04:15:08;;;;;;;7.37;5.17;;;;;;;17.33;100.00;96154.13;6131458;23;20063;-84
2023/06/17 04:17:38;;;;;;;8.63;5.83;;;;;;;17.23;100.00;96164.34;6131372;23;20005;-82
2023/06/17 04:20:10;;;;;;;9.57;5.50;;;;;;;17.53;100.00;96154.13;6131723;23;20005;-82
2023/06/17 04:22:39;;;;;;;7.28;5.07;;;;;;;17.85;100.00;96158.66;6132033;23;20016;-82
2023/06/17 04:25:06;;;;;;;8.43;5.03;;;;;;;18.00;100.00;96162.94;6131221;23;20075;-82
2023/06/17 04:27:36;;;;;;;7.47;4.87;;;;;;;18.21;100.00;96157.38;6159491;23;20088;-82
2023/06/17 04:30:04;;;;;;;9.30;6.17;;;;;;;18.09;100.00;96159.03;6131649;23;20087;-81
2023/06/17 04:32:29;;;;;;;9.63;6.20;;;;;;;18.20;100.00;96160.22;6154939;23;20005;-82
2023/06/17 04:34:55;;;;;;;11.33;6.03;;;;;;;18.41;100.00;96154.66;6130159;23;20005;-82
2023/06/17 04:37:22;;;;;;;11.67;5.63;;;;;;;18.52;100.00;96154.00;6131649;23;20001;-83
2023/06/17 04:39:48;;;;;;;9.23;5.70;;;;;;;18.74;100.00;96151.03;6155073;23;20005;-82
2023/06/17 04:42:14;;;;;;;9.97;5.97;;;;;;;18.52;100.00;96154.00;6154978;23;20479;-82
2023/06/17 04:44:44;;;;;;;9.07;6.27;;;;;;;18.49;100.00;96148.28;6131254;23;20008;-83
2023/06/17 04:47:11;;;;;;;10.53;6.60;;;;;;;18.60;100.00;96156.41;6154862;23;20009;-82
2023/06/17 04:49:41;;;;;;;10.37;6.43;;;;;;;18.50;100.00;96147.22;6155322;23;19997;-82
2023/06/17 04:52:14;;;;;;;8.43;6.20;;;;;;;18.73;100.00;96146.75;6129703;23;20009;-82
2023/06/17 04:54:41;;;;;;;10.57;6.73;;;;;;;18.98;100.00;96153.00;6130600;23;20016;-82
2023/06/17 04:57:08;;;;;;;8.57;5.70;;;;;;;19.04;100.00;96146.78;6130887;23;20007;-82
2023/06/17 04:59:34;;;;;;;9.17;5.70;;;;;;;19.37;100.00;96151.06;6130653;23;20009;-82
2023/06/17 05:02:04;;;;;;;9.73;5.80;;;;;;;19.65;100.00;96149.84;6154275;23;20005;-82
2023/06/17 05:04:29;;;;;;;10.63;5.83;;;;;;;19.75;100.00;96148.34;6180644;23;20009;-82
2023/06/17 05:06:55;;;;;;;9.97;5.40;;;;;;;20.02;100.00;96156.13;6130685;23;20492;-82
2023/06/17 05:09:22;;;;;;;8.33;5.47;;;;;;;19.81;100.00;96151.16;6130776;23;19997;-82
2023/06/17 05:11:58;;;;;;;8.77;5.90;;;;;;;19.77;100.00;96151.59;6155000;23;20005;-80
2023/06/17 05:14:23;;;;;;;9.20;5.63;;;;;;;20.00;100.00;96156.31;6155013;23;20071;-80
2023/06/17 05:16:49;;;;;;;8.23;5.67;;;;;;;20.37;100.00;96151.00;6150081;23;20009;-79
2023/06/17 05:19:15;;;;;;;9.13;5.97;;;;;;;20.59;100.00;96153.25;6125527;23;20013;-80
2023/06/17 05:21:40;;;;;;;8.07;4.90;;;;;;;20.42;100.00;96153.00;6124322;23;20437;-80
2023/06/17 05:24:06;;;;;;;13.57;5.57;;;;;;;20.73;100.00;96144.03;6125118;23;20012;-80
2023/06/17 05:26:31;;;;;;;8.83;5.47;;;;;;;21.11;100.00;96145.59;6126884;23;20005;-79
2023/06/17 05:29:01;;;;;;;10.33;6.50;;;;;;;20.98;100.00;96146.56;6154229;23;20032;-79
2023/06/17 05:31:26;;;;;;;10.43;5.00;;;;;;;21.35;100.00;96151.84;6129947;23;20059;-80
2023/06/17 05:33:52;;;;;;;8.63;5.57;;;;;;;21.36;100.00;96140.94;6130393;23;20013;-80
2023/06/17 05:36:19;;;;;;;9.27;6.47;;;;;;;21.64;100.00;96142.94;6130873;23;20009;-80
2023/06/17 05:38:45;;;;;;;9.60;6.87;;;;;;;22.09;100.00;96146.91;6130061;23;20005;-80
2023/06/17 05:41:10;;;;;;;9.43;6.20;;;;;;;22.09;100.00;96146.91;6129845;23;20016;-80
2023/06/17 05:43:37;;;;;;;8.57;5.83;;;;;;;22.67;99.64;96148.72;6130278;23;20013;-80
2023/06/17 05:46:02;;;;;;;8.73;4.93;;;;;;;22.63;96.32;96150.22;6155189;23;20433;-80
2023/06/17 05:48:28;;;;;;;10.15;4.95;;;;;;;23.10;93.44;96144.72;6154406;23;20789;-80
2023/06/17 05:50:54;;;;;;;8.48;5.43;;;;;;;23.16;97.35;96149.13;6153804;23;20024;-80
2023/06/17 05:53:23;;;;;;;7.85;4.85;;;;;;;23.94;89.37;96147.50;6154603;23;20005;-80
2023/06/17 05:55:50;;;;;;;7.00;4.75;;;;;;;23.88;93.55;96147.69;6155553;23;20008;-80
2023/06/17 05:58:15;;;;;;;8.07;5.10;;;;;;;24.21;94.08;96147.63;6130586;23;20013;-80
2023/06/17 06:00:51;;;;;;;7.32;5.25;;;;;;;24.20;100.00;96155.91;6154629;23;20009;-81
2023/06/17 06:03:16;;;;;;;9.68;4.88;;;;;;;24.41;99.88;96151.66;6153621;23;20084;-80
2023/06/17 06:05:42;;;;;;;8.43;5.55;;;;;;;24.78;98.94;96142.97;6129364;23;20055;-80
2023/06/17 06:08:07;;;;;;;7.32;5.10;;;;;;;24.48;98.26;96146.09;6153966;23;20005;-80
2023/06/17 06:10:34;;;;;;;10.13;5.72;;;;;;;24.83;98.17;96148.44;6179148;23;20004;-80
2023/06/17 06:13:01;;;;;;;7.93;5.45;;;;;;;25.40;92.92;96145.28;6130244;23;20082;-80
2023/06/17 06:15:28;;;;;;;6.60;4.68;;;;;;;25.61;94.68;96147.06;6129618;23;20009;-79
2023/06/17 06:17:53;;;;;;;8.27;5.18;;;;;;;26.23;86.12;96156.47;6155063;23;20326;-80
2023/06/17 06:20:19;;;;;;;9.15;5.50;;;;;;;25.59;88.65;96151.13;6154280;23;20028;-80
2023/06/17 06:22:44;;;;;;;7.78;4.70;;;;;;;26.47;84.11;96156.88;6130073;23;20008;-79
2023/06/17 06:25:29;;;;;;;11.10;5.28;;;;;;;26.46;81.61;96149.00;6130065;23;20024;-80
2023/06/17 06:27:55;;;;;;;8.75;5.13;;;;;;;26.80;74.81;96155.69;6129625;23;20063;-80
2023/06/17 06:30:25;;;;;;;9.10;6.10;;;;;;;26.27;78.46;96160.25;6131159;23;20005;-80
2023/06/17 06:32:53;;;;;;;10.60;6.13;;;;;;;26.53;75.41;96161.25;6129666;23;20079;-80
2023/06/17 06:35:20;;;;;;;9.57;4.82;;;;;;;26.75;73.26;96158.34;6130388;23;20430;-80
2023/06/17 06:37:48;;;;;;;9.40;4.93;;;;;;;27.44;70.50;96156.41;6130681;23;20005;-80
2023/06/17 06:40:14;;;;;;;7.97;4.97;;;;;;;27.53;67.95;96160.19;6154074;23;20009;-80
2023/06/17 06:42:41;;;;;;;13.07;5.03;;;;;;;28.13;61.33;96157.78;6153714;23;20011;-80
2023/06/17 06:45:17;;;;;;;7.30;4.70;;;;;;;29.10;54.90;96161.03;6132558;23;20343;-79
2023/06/17 06:47:46;;;;;;;7.18;4.70;;;;;;;29.46;52.89;96165.44;6154691;23;20079;-80
2023/06/17 06:50:12;;;;;;;10.25;5.13;;;;;;;29.36;51.87;96164.41;6130161;23;20012;-80
2023/06/17 06:52:41;;;;;;;8.35;5.03;;;;;;;29.70;50.25;96168.25;6128651;23;20005;-80
2023/06/17 06:55:14;;;;;;;7.47;5.10;;;;;;;29.67;51.62;96166.13;6129114;23;20019;-80
2023/06/17 06:57:40;;;;;;;8.45;4.13;;;;;;;30.57;46.96;96170.19;6129482;23;20361;-80
2023/06/17 07:00:08;;;;;;;10.48;4.78;;;;;;;30.52;46.25;96165.66;6153281;23;20009;-80
2023/06/17 07:02:36;;;;;;;6.95;4.25;;;;;;;30.47;38.56;96168.41;6129488;23;20520;-80
2023/06/17 07:05:24;;;;;;;8.50;4.63;;;;;;;30.39;37.94;96171.75;6153686;23;20033;-80
2023/06/17 07:07:55;;;;;;;8.00;5.05;;;;;;;30.51;37.89;96169.44;6130650;23;20092;-80
2023/06/17 07:10:22;;;;;;;9.38;4.90;;;;;;;29.92;38.16;96170.53;6153578;23;20464;-80
2023/06/17 07:12:48;;;;;;;7.13;4.63;;;;;;;30.81;37.42;96168.31;6153601;23;20008;-80
2023/06/17 07:15:15;;;;;;;8.55;4.80;;;;;;;31.75;35.11;96174.94;6129397;23;20044;-80
2023/06/17 07:17:41;;;;;;;6.45;4.18;;;;;;;31.68;36.41;96173.38;6129330;23;20005;-80
2023/06/17 07:20:07;;;;;;;9.20;4.22;;;;;;;30.98;36.12;96178.69;6128641;23;20005;-80
2023/06/17 07:22:35;;;;;;;6.78;4.38;;;;;;;31.31;35.59;96171.47;6154045;23;20425;-80
2023/06/17 07:25:03;;;;;;;6.03;3.85;;;;;;;32.49;33.04;96173.16;6155124;23;20009;-82
2023/06/17 07:27:29;;;;;;;7.65;4.50;;;;;;;32.29;31.94;96176.22;6155882;23;20008;-82
2023/06/17 07:29:55;;;;;;;6.35;4.00;;;;;;;33.08;31.92;96176.91;6155879;23;19993;-85
2023/06/17 07:32:20;;;;;;;6.85;3.90;;;;;;;33.12;32.09;96174.38;6155691;23;20008;-82
2023/06/17 07:34:48;;;;;;;6.68;3.92;;;;;;;31.24;34.92;96177.25;6156377;23;20496;-83
2023/06/17 07:37:13;;;;;;;7.30;3.92;;;;;;;32.44;31.38;96173.25;6132101;23;20001;-83
2023/06/17 07:39:39;;;;;;;9.55;3.72;;;;;;;32.28;32.13;96171.88;6155700;23;20516;-85
2023/06/17 07:42:05;;;;;;;11.60;4.55;;;;;;;32.03;31.83;96173.97;6155550;23;20012;-83
2023/06/17 07:44:32;;;;;;;6.18;4.00;;;;;;;32.40;33.04;96169.50;6155717;23;20009;-82
2023/06/17 07:46:57;;;;;;;8.18;4.15;;;;;;;33.20;30.37;96165.50;6131012;23;20064;-84
2023/06/17 07:49:42;;;;;;;6.63;3.88;;;;;;;31.71;31.44;96166.56;6155103;23;20008;-83
2023/06/17 07:52:07;;;;;;;6.30;3.80;;;;;;;32.82;30.95;96170.34;6155432;23;20005;-83
2023/06/17 07:54:35;;;;;;;6.10;4.20;;;;;;;33.33;29.47;96166.56;6131191;23;20009;-85
2023/06/17 07:57:02;;;;;;;7.07;4.53;;;;;;;34.01;28.84;96168.28;6156623;23;20008;-83
2023/06/17 07:59:28;;;;;;;6.97;3.88;;;;;;;34.25;28.09;96167.16;6131790;23;20068;-86
2023/06/17 08:01:54;;;;;;;6.20;4.05;;;;;;;34.38;28.05;96165.44;6157592;23;20034;-86
2023/06/17 08:04:19;;;;;;;7.55;4.18;;;;;;;33.66;29.11;96163.66;6159274;23;20005;-87
2023/06/17 08:06:55;;;;;;;6.28;3.78;;;;;;;32.05;31.16;96163.56;6158013;23;20055;-86
2023/06/17 08:09:22;;;;;;;9.00;4.15;;;;;;;33.36;30.09;96157.78;6131746;23;20005;-85
2023/06/17 08:11:57;;;;;;;6.93;3.78;;;;;;;33.19;30.14;96163.88;6131033;23;20091;-84
2023/06/17 08:14:24;;;;;;;8.07;4.00;;;;;;;34.54;29.52;96152.19;6130719;23;20040;-85
2023/06/17 08:16:49;;;;;;;5.72;4.35;;;;;;;34.14;28.21;96147.50;6140679;23;20341;-86
2023/06/17 08:19:16;;;;;;;9.60;4.65;;;;;;;34.37;29.00;96150.97;6158320;23;20005;-86
2023/06/17 08:21:45;;;;;;;6.65;4.18;;;;;;;34.94;28.75;96151.06;6158386;23;20349;-87
2023/06/17 08:24:21;;;;;;;7.10;4.38;;;;;;;34.88;28.73;96154.28;6134715;23;20345;-86
2023/06/17 08:26:48;;;;;;;6.97;4.70;;;;;;;33.59;28.71;96142.28;6136716;23;20076;-85
2023/06/17 08:29:25;;;;;;;7.07;5.10;;;;;;;34.81;27.84;96138.34;6191776;23;20719;-87
2023/06/17 08:31:56;;;;;;;8.23;4.55;;;;;;;34.94;27.69;96147.50;6156522;23;20001;-85
2023/06/17 08:34:22;;;;;;;6.35;4.53;;;;;;;33.77;28.58;96149.50;6156640;23;20040;-86
2023/06/17 08:36:54;;;;;;;5.60;4.07;;;;;;;34.86;26.75;96149.09;6155831;23;20008;-85
2023/06/17 08:39:21;;;;;;;5.85;4.18;;;;;;;34.73;27.77;96141.84;6182199;23;20429;-85
2023/06/17 08:41:47;;;;;;;7.18;4.28;;;;;;;34.05;27.58;96143.13;6157961;23;20016;-85
2023/06/17 08:44:24;;;;;;;5.45;3.72;;;;;;;35.97;25.50;96137.00;6131279;23;20009;-84
2023/06/17 08:46:53;;;;;;;7.57;3.75;;;;;;;36.68;24.37;96131.81;6155820;23;20059;-84
2023/06/17 08:49:22;;;;;;;6.43;3.88;;;;;;;35.92;25.03;96139.88;6130835;23;20023;-84
2023/06/17 08:51:50;;;;;;;6.20;4.35;;;;;;;36.09;24.02;96129.75;6155074;23;20012;-84
2023/06/17 08:54:18;;;;;;;7.97;4.47;;;;;;;36.81;23.55;96125.28;6155461;23;20444;-84
2023/06/17 08:56:44;;;;;;;5.95;4.05;;;;;;;35.61;24.70;96129.94;6181486;23;20016;-85
2023/06/17 08:59:10;;;;;;;6.40;4.40;;;;;;;35.32;24.98;96136.84;6130048;23;20484;-84
2023/06/17 09:01:38;;;;;;;8.13;4.60;;;;;;;34.34;24.67;96132.50;6155291;23;20013;-85
2023/06/17 09:04:04;;;;;;;6.10;3.85;;;;;;;36.40;23.87;96127.88;6129581;23;20054;-84
2023/06/17 09:06:37;;;;;;;6.32;4.55;;;;;;;35.36;25.55;96135.06;6156064;23;20158;-85
2023/06/17 09:09:03;;;;;;;6.80;4.93;;;;;;;34.15;25.13;96134.66;6181492;23;20016;-85
2023/06/17 09:11:30;;;;;;;9.52;5.07;;;;;;;33.97;25.49;96140.00;6155397;23;20000;-85
2023/06/17 09:14:00;;;;;;;9.15;4.72;;;;;;;34.22;23.59;96133.09;6181937;23;20468;-86
2023/06/17 09:16:34;;;;;;;6.90;4.20;;;;;;;35.74;22.08;96131.69;6155098;23;20043;-86
2023/06/17 09:19:09;;;;;;;7.47;4.30;;;;;;;35.05;23.77;96134.41;6181776;23;20362;-84
2023/06/17 09:21:36;;;;;;;6.15;4.47;;;;;;;35.61;23.48;96130.75;6154676;23;20005;-84
2023/06/17 09:24:05;;;;;;;7.90;4.75;;;;;;;35.55;23.04;96123.84;6155255;23;20467;-83
2023/06/17 09:26:35;;;;;;;7.00;4.40;;;;;;;34.76;24.34;96127.53;6156210;23;20000;-84
2023/06/17 09:29:05;;;;;;;8.38;4.93;;;;;;;34.11;24.77;96133.69;6155303;23;20404;-83
2023/06/17 09:31:48;;;;;;;6.03;4.38;;;;;;;32.80;26.29;96134.44;6181748;23;20009;-83
2023/06/17 09:34:28;;;;;;;8.45;4.72;;;;;;;32.65;26.61;96126.59;6154824;23;20429;-83
2023/06/17 09:37:00;;;;;;;7.15;4.72;;;;;;;34.30;24.82;96115.13;6154754;23;20004;-81
2023/06/17 09:39:33;;;;;;;8.27;5.07;;;;;;;34.72;23.35;96121.91;6154524;23;20067;-82
2023/06/17 09:42:09;;;;;;;7.90;4.80;;;;;;;35.00;22.67;96124.38;6154258;23;20008;-82
2023/06/17 09:44:37;;;;;;;7.97;4.78;;;;;;;34.34;23.31;96121.59;6129950;23;20063;-81
2023/06/17 09:47:07;;;;;;;7.40;4.93;;;;;;;35.63;22.07;96114.03;6130259;23;20041;-82
2023/06/17 09:49:34;;;;;;;8.32;4.63;;;;;;;34.99;22.50;96116.50;6155473;23;19997;-82
2023/06/17 09:52:02;;;;;;;8.02;4.40;;;;;;;36.29;22.03;96111.00;6153831;23;20084;-82
2023/06/17 09:54:30;;;;;;;6.00;4.38;;;;;;;36.49;22.65;96109.50;6130596;23;20005;-82
2023/06/17 09:56:59;;;;;;;11.15;4.85;;;;;;;36.53;21.98;96111.25;6153546;23;20013;-82
2023/06/17 09:59:31;;;;;;;7.47;4.75;;;;;;;35.76;22.63;96107.56;6153987;23;20063;-82
2023/06/17 10:01:56;;;;;;;;;;;;;;;35.17;23.13;96105.28;6129314;23;20005;-82
2023/06/17 10:04:22;;;;;;;6.25;4.50;;;;;;;36.02;21.91;96095.81;6154601;23;19911;-82
2023/06/17 10:06:50;;;;;;;10.65;4.45;;;;;;;36.14;21.62;96103.31;6181286;23;20013;-82
2023/06/17 10:09:15;;;;;;;7.07;4.95;;;;;;;36.35;22.07;96094.06;6155057;23;20072;-84
2023/06/17 10:11:50;;;;;;;7.75;4.55;;;;;;;35.39;23.60;96101.63;6154315;23;20025;-82
2023/06/17 10:14:33;;;;;;;6.28;4.10;;;;;;;35.36;23.09;96102.25;6155261;23;20016;-82
2023/06/17 10:17:03;;;;;;;8.65;4.70;;;;;;;34.95;23.26;96103.50;6154282;23;20337;-82
2023/06/17 10:19:33;;;;;;;9.63;4.25;;;;;;;36.39;21.56;96087.91;6181041;23;20005;-83
2023/06/17 10:22:01;;;;;;;7.93;4.50;;;;;;;36.89;21.62;96088.03;6129440;23;20009;-83
2023/06/17 10:24:27;;;;;;;8.10;4.63;;;;;;;36.42;20.25;96087.25;6156491;23;20009;-84
2023/06/17 10:26:53;;;;;;;5.50;4.20;;;;;;;37.45;19.15;96083.13;6129546;23;20012;-82
2023/06/17 10:29:22;;;;;;;8.93;4.32;;;;;;;37.11;20.50;96080.63;6193267;23;20017;-84
2023/06/17 10:31:47;;;;;;;8.48;4.63;;;;;;;36.45;20.87;96081.13;6179681;23;20016;-84
2023/06/17 10:34:21;;;;;;;42.05;9.27;;;;;;;37.85;19.88;96074.34;6154898;23;20013;-85
2023/06/17 10:36:58;;;;;;;25.67;7.90;;;;;;;36.87;20.12;96079.31;6160667;23;20017;-84
2023/06/17 10:39:24;;;;;;;36.08;7.32;;;;;;;35.57;21.39;96087.97;6180790;23;20005;-84
2023/06/17 10:41:50;;;;;;;18.30;6.43;;;;;;;34.14;23.90;96092.09;6129713;23;20005;-82
2023/06/17 10:44:35;;;;;;;12.43;7.40;;;;;;;33.68;25.07;96088.63;6129689;23;20088;-83
2023/06/17 10:47:29;;;;;;;11.30;8.02;;;;;;;34.08;24.84;96085.97;6154215;23;20069;-82
2023/06/17 10:49:55;;;;;;;8.57;4.78;;;;;;;35.42;23.55;96078.28;6180921;23;20001;-82
2023/06/17 10:52:20;;;;;;;20.42;6.25;;;;;;;35.89;23.59;96072.94;6153450;23;20012;-82
2023/06/17 10:54:54;;;;;;;64.82;13.65;;;;;;;37.21;21.68;96072.81;6180994;23;20012;-82
2023/06/17 10:57:37;;;;;;;9.45;5.10;;;;;;;36.70;22.39;96072.00;6130309;23;20096;-82
2023/06/17 11:00:13;;;;;;;9.45;4.90;;;;;;;36.87;20.78;96067.56;6180185;23;20012;-86
2023/06/17 11:02:39;;;;;;;6.57;4.15;;;;;;;37.09;20.42;96056.31;6128996;23;20032;-82
2023/06/17 11:05:06;;;;;;;9.55;4.65;;;;;;;37.62;20.39;96062.16;6179426;23;20060;-82
2023/06/17 11:07:31;;;;;;;9.32;5.00;;;;;;;37.40;20.94;96064.09;6178482;23;20013;-84
2023/06/17 11:10:00;;;;;;;8.32;4.80;;;;;;;37.23;20.37;96059.56;6130150;23;20333;-85
2023/06/17 11:12:26;;;;;;;8.30;4.35;;;;;;;36.80;20.29;96060.66;6154617;23;20369;-82
2023/06/17 11:14:52;;;;;;;9.85;5.30;;;;;;;35.91;20.64;96056.19;6129932;23;20009;-83
2023/06/17 11:17:17;;;;;;;5.80;4.35;;;;;;;36.26;20.62;96048.69;6154393;23;20056;-83
2023/06/17 11:19:43;;;;;;;9.57;4.85;;;;;;;35.12;21.19;96058.19;6154484;23;20032;-82
2023/06/17 11:22:13;;;;;;;6.93;4.55;;;;;;;35.99;21.21;96042.47;6153460;23;20016;-82
2023/06/17 11:24:51;;;;;;;7.07;4.57;;;;;;;36.74;20.64;96044.75;6153416;23;20001;-82
2023/06/17 13:09:13;;;;;;;9.27;4.85;;;;;;;35.85;20.51;96009.84;6155836;23;20593;-81
2023/06/17 13:11:42;;;;;;;7.22;4.95;;;;;;;35.51;20.16;96010.69;6185013;23;20052;-80
2023/06/17 13:14:08;;;;;;;7.25;4.20;;;;;;;36.02;19.89;96006.28;6185276;23;20058;-80